Albacete, Spain
Current Conditions -  °F | °C
As of 2:00 PM on Thursday 18 Dec 2014 (Local Time) from LEAB Reporting Station
Clear Clear  
Wind Chill: 52°   Ceiling: Unl
Heat Index: 52°   Visibility: 6mi
Dew Point: 43°   Wind: 12mph
Humidity: 71%   Direction: 330°NNW
Pressure: 30.33"   Gusts: NA
Location:  38.98°N, 1.85°W
Report Text: LEAB 181300Z 33010KT CAVOK 11/06 Q1027 NOSIG
Loading
Personal Weather Stations






























Interactive Weather Map New forecast layout! Learn more

10-Day Weather Forecast

Advertisements
Track Severe Weather on mobile